sensor_id;sensor_type;location;lat;lon;timestamp;P1;durP1;ratioP1;P2;durP2;ratioP2
20894;SDS011;10607;42.066;24.742;2023-08-01T00:00:44;3.33;;;2.95;;
20894;SDS011;10607;42.066;24.742;2023-08-01T00:03:10;3.50;;;3.20;;
20894;SDS011;10607;42.066;24.742;2023-08-01T00:05:35;3.63;;;3.30;;
20894;SDS011;10607;42.066;24.742;2023-08-01T00:08:00;3.83;;;3.10;;
20894;SDS011;10607;42.066;24.742;2023-08-01T00:10:27;4.80;;;2.92;;
20894;SDS011;10607;42.066;24.742;2023-08-01T00:12:52;3.33;;;3.03;;
20894;SDS011;10607;42.066;24.742;2023-08-01T00:15:18;3.55;;;3.22;;
20894;SDS011;10607;42.066;24.742;2023-08-01T00:17:43;4.05;;;3.10;;
20894;SDS011;10607;42.066;24.742;2023-08-01T00:20:08;3.28;;;2.97;;
20894;SDS011;10607;42.066;24.742;2023-08-01T00:22:34;3.50;;;3.20;;
20894;SDS011;10607;42.066;24.742;2023-08-01T00:24:59;2.88;;;2.67;;
20894;SDS011;10607;42.066;24.742;2023-08-01T00:27:24;3.53;;;2.90;;
20894;SDS011;10607;42.066;24.742;2023-08-01T00:29:50;6.95;;;3.40;;
20894;SDS011;10607;42.066;24.742;2023-08-01T00:32:15;2.90;;;2.70;;
20894;SDS011;10607;42.066;24.742;2023-08-01T00:34:40;3.28;;;2.97;;
20894;SDS011;10607;42.066;24.742;2023-08-01T00:37:05;3.50;;;3.20;;
20894;SDS011;10607;42.066;24.742;2023-08-01T00:39:31;4.13;;;2.47;;
20894;SDS011;10607;42.066;24.742;2023-08-01T00:41:56;2.80;;;2.60;;
20894;SDS011;10607;42.066;24.742;2023-08-01T00:44:21;4.70;;;2.90;;
20894;SDS011;10607;42.066;24.742;2023-08-01T00:46:47;5.75;;;3.10;;
20894;SDS011;10607;42.066;24.742;2023-08-01T00:49:13;5.63;;;2.80;;
20894;SDS011;10607;42.066;24.742;2023-08-01T00:51:39;3.78;;;2.95;;
20894;SDS011;10607;42.066;24.742;2023-08-01T00:54:04;5.10;;;3.60;;
20894;SDS011;10607;42.066;24.742;2023-08-01T00:56:30;6.13;;;4.63;;
20894;SDS011;10607;42.066;24.742;2023-08-01T00:58:55;10.35;;;5.00;;
20894;SDS011;10607;42.066;24.742;2023-08-01T01:01:20;6.07;;;4.28;;
20894;SDS011;10607;42.066;24.742;2023-08-01T01:03:46;4.85;;;3.60;;
20894;SDS011;10607;42.066;24.742;2023-08-01T01:06:16;8.05;;;4.30;;
20894;SDS011;10607;42.066;24.742;2023-08-01T01:08:44;7.78;;;3.58;;
20894;SDS011;10607;42.066;24.742;2023-08-01T01:11:09;5.32;;;3.55;;
20894;SDS011;10607;42.066;24.742;2023-08-01T01:13:35;3.55;;;2.88;;
20894;SDS011;10607;42.066;24.742;2023-08-01T01:16:00;3.55;;;3.03;;
20894;SDS011;10607;42.066;24.742;2023-08-01T01:18:26;3.13;;;2.80;;
20894;SDS011;10607;42.066;24.742;2023-08-01T01:20:51;3.78;;;2.70;;
20894;SDS011;10607;42.066;24.742;2023-08-01T01:23:16;4.38;;;3.03;;
20894;SDS011;10607;42.066;24.742;2023-08-01T01:25:42;3.53;;;2.80;;
20894;SDS011;10607;42.066;24.742;2023-08-01T01:28:08;3.83;;;3.10;;
20894;SDS011;10607;42.066;24.742;2023-08-01T01:30:35;3.05;;;2.75;;
20894;SDS011;10607;42.066;24.742;2023-08-01T01:33:00;5.72;;;2.33;;
20894;SDS011;10607;42.066;24.742;2023-08-01T01:35:26;3.53;;;2.90;;
20894;SDS011;10607;42.066;24.742;2023-08-01T01:37:52;4.97;;;3.05;;
20894;SDS011;10607;42.066;24.742;2023-08-01T01:40:17;3.13;;;2.83;;
20894;SDS011;10607;42.066;24.742;2023-08-01T01:42:42;3.13;;;2.55;;
20894;SDS011;10607;42.066;24.742;2023-08-01T01:45:08;4.03;;;2.65;;
20894;SDS011;10607;42.066;24.742;2023-08-01T01:47:33;2.92;;;2.70;;
20894;SDS011;10607;42.066;24.742;2023-08-01T01:49:58;3.10;;;2.67;;
20894;SDS011;10607;42.066;24.742;2023-08-01T01:52:24;5.07;;;2.75;;
20894;SDS011;10607;42.066;24.742;2023-08-01T01:54:49;3.70;;;2.95;;
20894;SDS011;10607;42.066;24.742;2023-08-01T01:57:14;5.63;;;3.05;;
20894;SDS011;10607;42.066;24.742;2023-08-01T01:59:39;4.65;;;2.42;;
20894;SDS011;10607;42.066;24.742;2023-08-01T02:02:05;3.95;;;3.05;;
20894;SDS011;10607;42.066;24.742;2023-08-01T02:04:30;2.63;;;2.42;;
20894;SDS011;10607;42.066;24.742;2023-08-01T02:06:56;4.05;;;3.03;;
20894;SDS011;10607;42.066;24.742;2023-08-01T02:09:21;3.20;;;2.78;;
20894;SDS011;10607;42.066;24.742;2023-08-01T02:11:46;3.72;;;2.97;;
20894;SDS011;10607;42.066;24.742;2023-08-01T02:14:12;4.10;;;3.28;;
20894;SDS011;10607;42.066;24.742;2023-08-01T02:16:38;3.20;;;2.90;;
20894;SDS011;10607;42.066;24.742;2023-08-01T02:19:03;3.85;;;3.40;;
20894;SDS011;10607;42.066;24.742;2023-08-01T02:21:28;3.15;;;2.80;;
20894;SDS011;10607;42.066;24.742;2023-08-01T02:23:53;3.95;;;3.20;;
20894;SDS011;10607;42.066;24.742;2023-08-01T02:26:19;3.13;;;2.75;;
20894;SDS011;10607;42.066;24.742;2023-08-01T02:28:44;3.10;;;2.80;;
20894;SDS011;10607;42.066;24.742;2023-08-01T02:31:09;3.15;;;2.90;;
20894;SDS011;10607;42.066;24.742;2023-08-01T02:33:35;3.78;;;3.28;;
20894;SDS011;10607;42.066;24.742;2023-08-01T02:36:00;3.90;;;3.30;;
20894;SDS011;10607;42.066;24.742;2023-08-01T02:38:25;3.08;;;2.88;;
20894;SDS011;10607;42.066;24.742;2023-08-01T02:40:50;6.00;;;2.97;;
20894;SDS011;10607;42.066;24.742;2023-08-01T02:43:16;3.70;;;3.25;;
20894;SDS011;10607;42.066;24.742;2023-08-01T02:45:42;3.47;;;3.17;;
20894;SDS011;10607;42.066;24.742;2023-08-01T02:48:07;4.90;;;3.03;;
20894;SDS011;10607;42.066;24.742;2023-08-01T02:50:32;4.80;;;3.30;;
20894;SDS011;10607;42.066;24.742;2023-08-01T02:52:58;4.13;;;3.00;;
20894;SDS011;10607;42.066;24.742;2023-08-01T02:55:23;3.55;;;3.25;;
20894;SDS011;10607;42.066;24.742;2023-08-01T02:57:48;4.55;;;3.20;;
20894;SDS011;10607;42.066;24.742;2023-08-01T03:00:13;3.42;;;3.08;;
20894;SDS011;10607;42.066;24.742;2023-08-01T03:02:39;7.15;;;3.55;;
20894;SDS011;10607;42.066;24.742;2023-08-01T03:05:07;8.07;;;3.20;;
20894;SDS011;10607;42.066;24.742;2023-08-01T03:07:33;3.88;;;3.42;;
20894;SDS011;10607;42.066;24.742;2023-08-01T03:09:58;4.90;;;3.60;;
20894;SDS011;10607;42.066;24.742;2023-08-01T03:12:23;8.50;;;3.45;;
20894;SDS011;10607;42.066;24.742;2023-08-01T03:14:48;3.40;;;3.10;;
20894;SDS011;10607;42.066;24.742;2023-08-01T03:17:14;6.13;;;4.55;;
20894;SDS011;10607;42.066;24.742;2023-08-01T03:19:39;5.75;;;4.63;;
20894;SDS011;10607;42.066;24.742;2023-08-01T03:22:04;4.47;;;4.07;;
20894;SDS011;10607;42.066;24.742;2023-08-01T03:24:30;7.85;;;4.50;;
20894;SDS011;10607;42.066;24.742;2023-08-01T03:26:55;8.60;;;5.20;;
20894;SDS011;10607;42.066;24.742;2023-08-01T03:29:20;7.43;;;5.25;;
20894;SDS011;10607;42.066;24.742;2023-08-01T03:31:46;6.28;;;5.22;;
20894;SDS011;10607;42.066;24.742;2023-08-01T03:34:11;8.13;;;5.53;;
20894;SDS011;10607;42.066;24.742;2023-08-01T03:36:37;8.13;;;5.68;;
20894;SDS011;10607;42.066;24.742;2023-08-01T03:39:03;8.90;;;5.30;;
20894;SDS011;10607;42.066;24.742;2023-08-01T03:41:29;7.78;;;5.82;;
20894;SDS011;10607;42.066;24.742;2023-08-01T03:43:54;13.13;;;5.75;;
20894;SDS011;10607;42.066;24.742;2023-08-01T03:46:19;8.38;;;6.05;;
20894;SDS011;10607;42.066;24.742;2023-08-01T03:48:45;9.52;;;5.93;;
20894;SDS011;10607;42.066;24.742;2023-08-01T03:51:10;9.15;;;5.10;;
20894;SDS011;10607;42.066;24.742;2023-08-01T03:53:36;14.27;;;5.60;;
20894;SDS011;10607;42.066;24.742;2023-08-01T03:56:01;9.38;;;5.88;;
20894;SDS011;10607;42.066;24.742;2023-08-01T03:58:27;10.18;;;5.47;;
20894;SDS011;10607;42.066;24.742;2023-08-01T04:00:52;7.47;;;4.70;;
20894;SDS011;10607;42.066;24.742;2023-08-01T04:03:18;7.60;;;4.82;;
20894;SDS011;10607;42.066;24.742;2023-08-01T04:05:43;6.70;;;5.15;;
20894;SDS011;10607;42.066;24.742;2023-08-01T04:08:09;7.50;;;5.25;;
20894;SDS011;10607;42.066;24.742;2023-08-01T04:10:34;7.43;;;5.38;;
20894;SDS011;10607;42.066;24.742;2023-08-01T04:12:59;7.78;;;5.35;;
20894;SDS011;10607;42.066;24.742;2023-08-01T04:15:24;6.60;;;4.70;;
20894;SDS011;10607;42.066;24.742;2023-08-01T04:17:50;6.65;;;4.22;;
20894;SDS011;10607;42.066;24.742;2023-08-01T04:20:15;7.90;;;5.15;;
20894;SDS011;10607;42.066;24.742;2023-08-01T04:22:40;8.18;;;5.28;;
20894;SDS011;10607;42.066;24.742;2023-08-01T04:25:06;9.05;;;5.53;;
20894;SDS011;10607;42.066;24.742;2023-08-01T04:27:31;9.45;;;5.88;;
20894;SDS011;10607;42.066;24.742;2023-08-01T04:29:57;10.73;;;5.50;;
20894;SDS011;10607;42.066;24.742;2023-08-01T04:32:22;9.63;;;5.82;;
20894;SDS011;10607;42.066;24.742;2023-08-01T04:34:47;9.02;;;5.45;;
20894;SDS011;10607;42.066;24.742;2023-08-01T04:37:12;12.18;;;5.28;;
20894;SDS011;10607;42.066;24.742;2023-08-01T04:39:38;11.15;;;6.20;;
20894;SDS011;10607;42.066;24.742;2023-08-01T04:42:03;8.60;;;6.18;;
20894;SDS011;10607;42.066;24.742;2023-08-01T04:44:29;10.05;;;6.00;;
20894;SDS011;10607;42.066;24.742;2023-08-01T04:46:55;9.50;;;6.55;;
20894;SDS011;10607;42.066;24.742;2023-08-01T04:49:20;9.95;;;6.10;;
20894;SDS011;10607;42.066;24.742;2023-08-01T04:51:47;8.88;;;5.57;;
20894;SDS011;10607;42.066;24.742;2023-08-01T04:54:12;10.30;;;5.57;;
20894;SDS011;10607;42.066;24.742;2023-08-01T04:56:38;9.00;;;5.15;;
20894;SDS011;10607;42.066;24.742;2023-08-01T04:59:03;14.48;;;4.85;;
20894;SDS011;10607;42.066;24.742;2023-08-01T05:01:28;9.82;;;5.63;;
20894;SDS011;10607;42.066;24.742;2023-08-01T05:03:54;6.95;;;4.78;;
20894;SDS011;10607;42.066;24.742;2023-08-01T05:06:19;8.00;;;5.15;;
20894;SDS011;10607;42.066;24.742;2023-08-01T05:08:44;9.27;;;4.95;;
20894;SDS011;10607;42.066;24.742;2023-08-01T05:11:09;8.50;;;4.97;;
20894;SDS011;10607;42.066;24.742;2023-08-01T05:13:35;7.20;;;4.75;;
20894;SDS011;10607;42.066;24.742;2023-08-01T05:16:00;7.03;;;4.95;;
20894;SDS011;10607;42.066;24.742;2023-08-01T05:18:26;7.53;;;5.20;;
20894;SDS011;10607;42.066;24.742;2023-08-01T05:20:51;11.55;;;4.47;;
20894;SDS011;10607;42.066;24.742;2023-08-01T05:23:17;14.27;;;5.13;;
20894;SDS011;10607;42.066;24.742;2023-08-01T05:25:42;10.57;;;4.40;;
20894;SDS011;10607;42.066;24.742;2023-08-01T05:28:07;13.23;;;5.25;;
20894;SDS011;10607;42.066;24.742;2023-08-01T05:30:33;14.68;;;4.93;;
20894;SDS011;10607;42.066;24.742;2023-08-01T05:32:58;10.75;;;5.10;;
20894;SDS011;10607;42.066;24.742;2023-08-01T05:35:23;11.77;;;5.75;;
20894;SDS011;10607;42.066;24.742;2023-08-01T05:37:48;9.68;;;4.78;;
20894;SDS011;10607;42.066;24.742;2023-08-01T05:40:14;10.20;;;5.60;;
20894;SDS011;10607;42.066;24.742;2023-08-01T05:42:39;10.30;;;4.47;;
20894;SDS011;10607;42.066;24.742;2023-08-01T05:45:04;8.63;;;5.15;;
20894;SDS011;10607;42.066;24.742;2023-08-01T05:47:30;16.67;;;5.72;;
20894;SDS011;10607;42.066;24.742;2023-08-01T05:49:55;12.82;;;6.18;;
20894;SDS011;10607;42.066;24.742;2023-08-01T05:52:21;8.98;;;5.20;;
20894;SDS011;10607;42.066;24.742;2023-08-01T05:54:47;8.55;;;5.22;;
20894;SDS011;10607;42.066;24.742;2023-08-01T05:57:12;10.00;;;4.40;;
20894;SDS011;10607;42.066;24.742;2023-08-01T05:59:37;6.10;;;4.40;;
20894;SDS011;10607;42.066;24.742;2023-08-01T06:02:03;8.65;;;4.18;;
20894;SDS011;10607;42.066;24.742;2023-08-01T06:04:28;7.75;;;4.50;;
20894;SDS011;10607;42.066;24.742;2023-08-01T06:06:53;16.05;;;5.07;;
20894;SDS011;10607;42.066;24.742;2023-08-01T06:09:19;7.10;;;4.00;;
20894;SDS011;10607;42.066;24.742;2023-08-01T06:11:44;9.15;;;4.88;;
20894;SDS011;10607;42.066;24.742;2023-08-01T06:14:09;15.93;;;3.97;;
20894;SDS011;10607;42.066;24.742;2023-08-01T06:16:35;7.78;;;3.70;;
20894;SDS011;10607;42.066;24.742;2023-08-01T06:19:00;9.55;;;3.85;;
20894;SDS011;10607;42.066;24.742;2023-08-01T06:21:25;12.43;;;4.38;;
20894;SDS011;10607;42.066;24.742;2023-08-01T06:23:51;4.97;;;3.72;;
20894;SDS011;10607;42.066;24.742;2023-08-01T06:26:16;12.60;;;4.47;;
20894;SDS011;10607;42.066;24.742;2023-08-01T06:28:41;6.90;;;3.88;;
20894;SDS011;10607;42.066;24.742;2023-08-01T06:31:07;6.55;;;3.42;;
20894;SDS011;10607;42.066;24.742;2023-08-01T06:33:32;5.20;;;3.58;;
20894;SDS011;10607;42.066;24.742;2023-08-01T06:35:57;4.80;;;3.50;;
20894;SDS011;10607;42.066;24.742;2023-08-01T06:38:23;7.75;;;3.92;;
20894;SDS011;10607;42.066;24.742;2023-08-01T06:40:48;10.18;;;4.15;;
20894;SDS011;10607;42.066;24.742;2023-08-01T06:43:13;12.85;;;4.35;;
20894;SDS011;10607;42.066;24.742;2023-08-01T06:45:39;6.95;;;3.88;;
20894;SDS011;10607;42.066;24.742;2023-08-01T06:48:04;6.47;;;3.40;;
20894;SDS011;10607;42.066;24.742;2023-08-01T06:50:29;8.75;;;2.75;;
20894;SDS011;10607;42.066;24.742;2023-08-01T06:52:54;7.78;;;3.75;;
20894;SDS011;10607;42.066;24.742;2023-08-01T06:55:20;7.20;;;2.90;;
20894;SDS011;10607;42.066;24.742;2023-08-01T06:57:45;3.70;;;2.70;;
20894;SDS011;10607;42.066;24.742;2023-08-01T07:00:10;7.47;;;3.00;;
20894;SDS011;10607;42.066;24.742;2023-08-01T07:02:36;4.68;;;2.78;;
20894;SDS011;10607;42.066;24.742;2023-08-01T07:05:01;6.22;;;2.70;;
20894;SDS011;10607;42.066;24.742;2023-08-01T07:07:26;5.35;;;2.70;;
20894;SDS011;10607;42.066;24.742;2023-08-01T07:09:52;7.82;;;2.83;;
20894;SDS011;10607;42.066;24.742;2023-08-01T07:12:17;6.70;;;2.65;;
20894;SDS011;10607;42.066;24.742;2023-08-01T07:14:42;4.75;;;2.70;;
20894;SDS011;10607;42.066;24.742;2023-08-01T07:17:08;3.72;;;2.42;;
20894;SDS011;10607;42.066;24.742;2023-08-01T07:19:33;3.30;;;2.33;;
20894;SDS011;10607;42.066;24.742;2023-08-01T07:21:58;10.10;;;2.50;;
20894;SDS011;10607;42.066;24.742;2023-08-01T07:24:24;5.88;;;4.15;;
20894;SDS011;10607;42.066;24.742;2023-08-01T07:26:49;7.10;;;2.85;;
20894;SDS011;10607;42.066;24.742;2023-08-01T07:29:14;3.85;;;2.92;;
20894;SDS011;10607;42.066;24.742;2023-08-01T07:31:41;7.03;;;2.80;;
20894;SDS011;10607;42.066;24.742;2023-08-01T07:34:06;10.60;;;4.03;;
20894;SDS011;10607;42.066;24.742;2023-08-01T07:36:31;3.92;;;2.97;;
20894;SDS011;10607;42.066;24.742;2023-08-01T07:38:57;5.68;;;2.33;;
20894;SDS011;10607;42.066;24.742;2023-08-01T07:41:22;4.88;;;2.65;;
20894;SDS011;10607;42.066;24.742;2023-08-01T07:43:47;2.92;;;2.58;;
20894;SDS011;10607;42.066;24.742;2023-08-01T07:46:14;3.30;;;2.80;;
20894;SDS011;10607;42.066;24.742;2023-08-01T07:48:39;7.30;;;3.30;;
20894;SDS011;10607;42.066;24.742;2023-08-01T07:51:04;12.23;;;4.30;;
20894;SDS011;10607;42.066;24.742;2023-08-01T07:53:30;3.42;;;2.75;;
20894;SDS011;10607;42.066;24.742;2023-08-01T07:55:56;3.42;;;2.45;;
20894;SDS011;10607;42.066;24.742;2023-08-01T07:58:21;6.72;;;2.60;;
20894;SDS011;10607;42.066;24.742;2023-08-01T08:00:46;6.38;;;2.55;;
20894;SDS011;10607;42.066;24.742;2023-08-01T08:03:12;4.72;;;2.70;;
20894;SDS011;10607;42.066;24.742;2023-08-01T08:05:37;5.95;;;2.97;;
20894;SDS011;10607;42.066;24.742;2023-08-01T08:08:03;6.88;;;2.80;;
20894;SDS011;10607;42.066;24.742;2023-08-01T08:10:29;6.05;;;2.70;;
20894;SDS011;10607;42.066;24.742;2023-08-01T08:12:54;6.63;;;2.70;;
20894;SDS011;10607;42.066;24.742;2023-08-01T08:15:19;3.22;;;2.28;;
20894;SDS011;10607;42.066;24.742;2023-08-01T08:17:45;5.97;;;2.72;;
20894;SDS011;10607;42.066;24.742;2023-08-01T08:20:10;4.90;;;2.97;;
20894;SDS011;10607;42.066;24.742;2023-08-01T08:22:35;4.85;;;2.72;;
20894;SDS011;10607;42.066;24.742;2023-08-01T08:25:01;4.50;;;2.75;;
20894;SDS011;10607;42.066;24.742;2023-08-01T08:27:26;3.42;;;2.65;;
20894;SDS011;10607;42.066;24.742;2023-08-01T08:29:51;3.53;;;2.72;;
20894;SDS011;10607;42.066;24.742;2023-08-01T08:32:16;3.67;;;2.38;;
20894;SDS011;10607;42.066;24.742;2023-08-01T08:34:42;6.57;;;2.28;;
20894;SDS011;10607;42.066;24.742;2023-08-01T08:37:07;4.88;;;2.78;;
20894;SDS011;10607;42.066;24.742;2023-08-01T08:39:32;7.03;;;2.38;;
20894;SDS011;10607;42.066;24.742;2023-08-01T08:41:58;2.60;;;2.15;;
20894;SDS011;10607;42.066;24.742;2023-08-01T08:44:24;4.55;;;2.10;;
20894;SDS011;10607;42.066;24.742;2023-08-01T08:46:51;3.38;;;2.55;;
20894;SDS011;10607;42.066;24.742;2023-08-01T08:49:17;3.55;;;2.97;;
20894;SDS011;10607;42.066;24.742;2023-08-01T08:51:44;7.20;;;2.50;;
20894;SDS011;10607;42.066;24.742;2023-08-01T08:54:10;4.30;;;2.60;;
20894;SDS011;10607;42.066;24.742;2023-08-01T08:56:36;7.65;;;2.40;;
20894;SDS011;10607;42.066;24.742;2023-08-01T08:59:03;6.18;;;2.55;;
20894;SDS011;10607;42.066;24.742;2023-08-01T09:01:28;3.97;;;2.50;;
20894;SDS011;10607;42.066;24.742;2023-08-01T09:03:56;2.92;;;2.20;;
20894;SDS011;10607;42.066;24.742;2023-08-01T09:06:28;5.93;;;3.00;;
20894;SDS011;10607;42.066;24.742;2023-08-01T09:09:04;3.13;;;2.83;;
20894;SDS011;10607;42.066;24.742;2023-08-01T09:14:04;4.53;;;3.13;;
20894;SDS011;10607;42.066;24.742;2023-08-01T09:16:30;6.78;;;2.85;;
20894;SDS011;10607;42.066;24.742;2023-08-01T09:18:55;4.28;;;3.03;;
20894;SDS011;10607;42.066;24.742;2023-08-01T09:21:20;5.50;;;2.85;;
20894;SDS011;10607;42.066;24.742;2023-08-01T09:23:46;8.55;;;2.88;;
20894;SDS011;10607;42.066;24.742;2023-08-01T09:26:15;7.20;;;3.08;;
20894;SDS011;10607;42.066;24.742;2023-08-01T09:28:40;5.45;;;2.72;;
20894;SDS011;10607;42.066;24.742;2023-08-01T09:31:05;4.50;;;2.92;;
20894;SDS011;10607;42.066;24.742;2023-08-01T09:33:38;5.00;;;2.80;;
20894;SDS011;10607;42.066;24.742;2023-08-01T09:36:04;6.90;;;2.90;;
20894;SDS011;10607;42.066;24.742;2023-08-01T09:38:33;6.30;;;2.97;;
20894;SDS011;10607;42.066;24.742;2023-08-01T09:40:58;4.90;;;2.47;;
20894;SDS011;10607;42.066;24.742;2023-08-01T09:43:24;6.70;;;2.50;;
20894;SDS011;10607;42.066;24.742;2023-08-01T09:45:52;6.07;;;2.90;;
20894;SDS011;10607;42.066;24.742;2023-08-01T09:48:24;9.10;;;2.70;;
20894;SDS011;10607;42.066;24.742;2023-08-01T09:50:50;6.60;;;2.90;;
20894;SDS011;10607;42.066;24.742;2023-08-01T09:53:16;3.75;;;2.67;;
20894;SDS011;10607;42.066;24.742;2023-08-01T09:55:41;7.15;;;3.13;;
20894;SDS011;10607;42.066;24.742;2023-08-01T09:58:08;3.95;;;3.10;;
20894;SDS011;10607;42.066;24.742;2023-08-01T10:00:35;4.15;;;3.05;;
20894;SDS011;10607;42.066;24.742;2023-08-01T10:03:00;9.68;;;3.03;;
20894;SDS011;10607;42.066;24.742;2023-08-01T10:05:29;5.38;;;3.00;;
20894;SDS011;10607;42.066;24.742;2023-08-01T10:07:56;7.70;;;3.15;;
20894;SDS011;10607;42.066;24.742;2023-08-01T10:10:23;5.38;;;2.53;;
20894;SDS011;10607;42.066;24.742;2023-08-01T10:12:50;6.55;;;3.05;;
20894;SDS011;10607;42.066;24.742;2023-08-01T10:15:15;4.93;;;2.30;;
20894;SDS011;10607;42.066;24.742;2023-08-01T10:17:41;4.28;;;2.83;;
20894;SDS011;10607;42.066;24.742;2023-08-01T10:20:07;7.07;;;2.72;;
20894;SDS011;10607;42.066;24.742;2023-08-01T10:22:32;7.20;;;3.10;;
20894;SDS011;10607;42.066;24.742;2023-08-01T10:24:58;6.03;;;2.90;;
20894;SDS011;10607;42.066;24.742;2023-08-01T10:27:23;3.80;;;2.80;;
20894;SDS011;10607;42.066;24.742;2023-08-01T10:29:58;8.35;;;2.70;;
20894;SDS011;10607;42.066;24.742;2023-08-01T10:32:28;7.10;;;2.92;;
20894;SDS011;10607;42.066;24.742;2023-08-01T10:34:53;5.53;;;3.22;;
20894;SDS011;10607;42.066;24.742;2023-08-01T10:37:18;6.60;;;3.10;;
20894;SDS011;10607;42.066;24.742;2023-08-01T10:39:44;3.78;;;3.40;;
20894;SDS011;10607;42.066;24.742;2023-08-01T10:42:09;4.63;;;3.08;;
20894;SDS011;10607;42.066;24.742;2023-08-01T10:44:44;10.65;;;4.05;;
20894;SDS011;10607;42.066;24.742;2023-08-01T10:47:09;6.15;;;2.92;;
20894;SDS011;10607;42.066;24.742;2023-08-01T10:49:36;4.22;;;3.20;;
20894;SDS011;10607;42.066;24.742;2023-08-01T10:52:18;7.28;;;3.28;;
20894;SDS011;10607;42.066;24.742;2023-08-01T10:54:44;4.90;;;3.97;;
20894;SDS011;10607;42.066;24.742;2023-08-01T10:57:15;4.85;;;3.65;;
20894;SDS011;10607;42.066;24.742;2023-08-01T10:59:40;7.00;;;3.50;;
20894;SDS011;10607;42.066;24.742;2023-08-01T11:02:07;4.70;;;3.92;;
20894;SDS011;10607;42.066;24.742;2023-08-01T11:04:32;5.68;;;3.50;;
20894;SDS011;10607;42.066;24.742;2023-08-01T11:06:57;6.57;;;4.45;;
20894;SDS011;10607;42.066;24.742;2023-08-01T11:09:23;7.35;;;4.68;;
20894;SDS011;10607;42.066;24.742;2023-08-01T11:11:50;5.03;;;4.00;;
20894;SDS011;10607;42.066;24.742;2023-08-01T11:14:15;5.50;;;4.22;;
20894;SDS011;10607;42.066;24.742;2023-08-01T11:16:41;6.47;;;4.35;;
20894;SDS011;10607;42.066;24.742;2023-08-01T11:19:17;9.45;;;4.07;;
20894;SDS011;10607;42.066;24.742;2023-08-01T11:21:42;8.57;;;4.07;;
20894;SDS011;10607;42.066;24.742;2023-08-01T11:24:08;6.85;;;3.92;;
20894;SDS011;10607;42.066;24.742;2023-08-01T11:26:33;6.07;;;4.03;;
20894;SDS011;10607;42.066;24.742;2023-08-01T11:29:04;7.55;;;4.47;;
20894;SDS011;10607;42.066;24.742;2023-08-01T11:31:30;6.00;;;4.68;;
20894;SDS011;10607;42.066;24.742;2023-08-01T11:33:56;5.90;;;4.57;;
20894;SDS011;10607;42.066;24.742;2023-08-01T11:36:22;9.35;;;4.68;;
20894;SDS011;10607;42.066;24.742;2023-08-01T11:38:49;5.13;;;4.63;;
20894;SDS011;10607;42.066;24.742;2023-08-01T11:41:15;10.50;;;4.20;;
20894;SDS011;10607;42.066;24.742;2023-08-01T11:43:40;5.38;;;4.22;;
20894;SDS011;10607;42.066;24.742;2023-08-01T11:46:06;6.78;;;4.55;;
20894;SDS011;10607;42.066;24.742;2023-08-01T11:48:31;8.43;;;4.55;;
20894;SDS011;10607;42.066;24.742;2023-08-01T11:51:00;4.15;;;3.60;;
20894;SDS011;10607;42.066;24.742;2023-08-01T11:53:26;5.28;;;4.78;;
20894;SDS011;10607;42.066;24.742;2023-08-01T11:55:51;4.82;;;4.38;;
20894;SDS011;10607;42.066;24.742;2023-08-01T11:58:40;8.77;;;4.82;;
20894;SDS011;10607;42.066;24.742;2023-08-01T12:01:04;6.65;;;4.50;;
20894;SDS011;10607;42.066;24.742;2023-08-01T12:03:29;6.50;;;4.80;;
20894;SDS011;10607;42.066;24.742;2023-08-01T12:06:06;7.90;;;4.80;;
20894;SDS011;10607;42.066;24.742;2023-08-01T12:08:36;5.53;;;4.95;;
20894;SDS011;10607;42.066;24.742;2023-08-01T12:11:01;6.40;;;4.60;;
20894;SDS011;10607;42.066;24.742;2023-08-01T12:13:27;7.10;;;4.82;;
20894;SDS011;10607;42.066;24.742;2023-08-01T12:15:54;7.72;;;4.60;;
20894;SDS011;10607;42.066;24.742;2023-08-01T12:20:46;5.53;;;5.03;;
20894;SDS011;10607;42.066;24.742;2023-08-01T12:23:11;11.07;;;4.75;;
20894;SDS011;10607;42.066;24.742;2023-08-01T12:25:37;4.30;;;3.90;;
20894;SDS011;10607;42.066;24.742;2023-08-01T12:28:02;10.18;;;5.43;;
20894;SDS011;10607;42.066;24.742;2023-08-01T12:30:27;6.32;;;5.53;;
20894;SDS011;10607;42.066;24.742;2023-08-01T12:32:53;8.80;;;5.47;;
20894;SDS011;10607;42.066;24.742;2023-08-01T12:35:18;5.65;;;5.13;;
20894;SDS011;10607;42.066;24.742;2023-08-01T12:37:43;5.80;;;4.50;;
20894;SDS011;10607;42.066;24.742;2023-08-01T12:40:09;6.38;;;5.30;;
20894;SDS011;10607;42.066;24.742;2023-08-01T12:42:34;5.72;;;4.95;;
20894;SDS011;10607;42.066;24.742;2023-08-01T12:44:59;4.82;;;4.35;;
20894;SDS011;10607;42.066;24.742;2023-08-01T12:47:25;4.88;;;4.30;;
20894;SDS011;10607;42.066;24.742;2023-08-01T12:49:50;6.05;;;5.43;;
20894;SDS011;10607;42.066;24.742;2023-08-01T12:52:21;6.43;;;5.72;;
20894;SDS011;10607;42.066;24.742;2023-08-01T12:54:48;7.55;;;5.15;;
20894;SDS011;10607;42.066;24.742;2023-08-01T12:57:13;8.07;;;5.60;;
20894;SDS011;10607;42.066;24.742;2023-08-01T12:59:38;5.75;;;5.07;;
20894;SDS011;10607;42.066;24.742;2023-08-01T13:02:03;7.05;;;5.05;;
20894;SDS011;10607;42.066;24.742;2023-08-01T13:04:33;6.30;;;4.85;;
20894;SDS011;10607;42.066;24.742;2023-08-01T13:06:58;6.78;;;5.40;;
20894;SDS011;10607;42.066;24.742;2023-08-01T13:09:23;7.05;;;6.10;;
20894;SDS011;10607;42.066;24.742;2023-08-01T13:11:49;6.22;;;5.65;;
20894;SDS011;10607;42.066;24.742;2023-08-01T13:14:14;8.25;;;6.47;;
20894;SDS011;10607;42.066;24.742;2023-08-01T13:16:39;7.25;;;6.55;;
20894;SDS011;10607;42.066;24.742;2023-08-01T13:19:05;8.60;;;7.43;;
20894;SDS011;10607;42.066;24.742;2023-08-01T13:21:31;10.05;;;7.25;;
20894;SDS011;10607;42.066;24.742;2023-08-01T13:23:56;9.40;;;6.75;;
20894;SDS011;10607;42.066;24.742;2023-08-01T13:26:22;8.25;;;6.47;;
20894;SDS011;10607;42.066;24.742;2023-08-01T13:28:47;9.45;;;7.47;;
20894;SDS011;10607;42.066;24.742;2023-08-01T13:31:12;6.70;;;6.10;;
20894;SDS011;10607;42.066;24.742;2023-08-01T13:33:37;7.88;;;7.07;;
20894;SDS011;10607;42.066;24.742;2023-08-01T13:36:03;9.05;;;6.88;;
20894;SDS011;10607;42.066;24.742;2023-08-01T13:38:29;7.28;;;6.32;;
20894;SDS011;10607;42.066;24.742;2023-08-01T13:40:58;8.48;;;5.72;;
20894;SDS011;10607;42.066;24.742;2023-08-01T13:43:23;7.40;;;5.93;;
20894;SDS011;10607;42.066;24.742;2023-08-01T13:45:48;7.80;;;7.00;;
20894;SDS011;10607;42.066;24.742;2023-08-01T13:48:14;7.97;;;6.68;;
20894;SDS011;10607;42.066;24.742;2023-08-01T13:50:39;13.80;;;6.03;;
20894;SDS011;10607;42.066;24.742;2023-08-01T13:53:04;6.72;;;6.03;;
20894;SDS011;10607;42.066;24.742;2023-08-01T13:55:32;6.85;;;6.25;;
20894;SDS011;10607;42.066;24.742;2023-08-01T13:57:57;11.70;;;6.55;;
20894;SDS011;10607;42.066;24.742;2023-08-01T14:00:23;11.07;;;7.55;;
20894;SDS011;10607;42.066;24.742;2023-08-01T14:02:51;8.23;;;7.40;;
20894;SDS011;10607;42.066;24.742;2023-08-01T14:05:17;8.15;;;7.10;;
20894;SDS011;10607;42.066;24.742;2023-08-01T14:07:42;8.77;;;7.20;;
20894;SDS011;10607;42.066;24.742;2023-08-01T14:10:07;9.45;;;7.53;;
20894;SDS011;10607;42.066;24.742;2023-08-01T14:12:34;8.75;;;7.85;;
20894;SDS011;10607;42.066;24.742;2023-08-01T14:14:59;8.32;;;7.18;;
20894;SDS011;10607;42.066;24.742;2023-08-01T14:17:24;8.52;;;7.20;;
20894;SDS011;10607;42.066;24.742;2023-08-01T14:19:50;9.75;;;7.05;;
20894;SDS011;10607;42.066;24.742;2023-08-01T14:22:15;12.65;;;7.63;;
20894;SDS011;10607;42.066;24.742;2023-08-01T14:24:40;10.32;;;7.55;;
20894;SDS011;10607;42.066;24.742;2023-08-01T14:27:07;10.35;;;8.38;;
20894;SDS011;10607;42.066;24.742;2023-08-01T14:29:32;10.38;;;8.10;;